Time;durP1;ratioP1;P1;durP2;ratioP2;P2;SDS_P1;SDS_P2;PMS_P1;PMS_P2;Temp;Humidity;BMP_temperature;BMP_pressure;BME280_temperature;BME280_humidity;BME280_pressure;Samples;Min_cycle;Max_cycle;Signal;HPM_P1;HPM_P2
2023/05/31 00:00:43;;;;;;;5.95;4.47;;;;;;;;;;5032619;28;20100;-76
2023/05/31 00:03:09;;;;;;;7.57;4.35;;;;;;;;;;5032373;28;20079;-75
2023/05/31 00:05:36;;;;;;;11.18;4.50;;;;;;;;;;5031968;28;20076;-74
2023/05/31 00:08:02;;;;;;;4.57;3.97;;;;;;;;;;5032119;28;20049;-76
2023/05/31 00:10:28;;;;;;;11.23;4.30;;;;;;;;;;5031640;28;20045;-76
2023/05/31 00:12:54;;;;;;;5.82;3.90;;;;;;;;;;5031964;28;20052;-75
2023/05/31 00:15:20;;;;;;;5.47;4.32;;;;;;;;;;5036861;28;20049;-76
2023/05/31 00:17:46;;;;;;;5.60;4.40;;;;;;;;;;5031761;28;20033;-74
2023/05/31 00:20:13;;;;;;;5.70;4.00;;;;;;;;;;5031285;28;20049;-75
2023/05/31 00:22:39;;;;;;;6.10;4.60;;;;;;;;;;5031658;28;20064;-75
2023/05/31 00:25:05;;;;;;;5.00;4.32;;;;;;;;;;5031466;28;20133;-77
2023/05/31 00:27:32;;;;;;;4.85;4.45;;;;;;;;;;5031437;28;20099;-76
2023/05/31 00:29:57;;;;;;;4.35;3.95;;;;;;;;;;5031395;28;20046;-76
2023/05/31 00:32:23;;;;;;;9.90;4.32;;;;;;;;;;5030911;28;20072;-76
2023/05/31 00:34:49;;;;;;;6.10;4.13;;;;;;;;;;5031388;28;20038;-74
2023/05/31 00:37:15;;;;;;;6.82;3.70;;;;;;;;;;5031188;28;20048;-74
2023/05/31 00:39:42;;;;;;;5.47;4.05;;;;;;;;;;5013518;28;20537;-76
2023/05/31 00:42:08;;;;;;;4.75;3.85;;;;;;;;;;5030872;28;20077;-76
2023/05/31 00:44:35;;;;;;;6.28;4.15;;;;;;;;;;5013563;28;20069;-75
2023/05/31 00:47:01;;;;;;;5.20;3.63;;;;;;;;;;5031183;28;20045;-75
2023/05/31 00:49:28;;;;;;;9.15;4.22;;;;;;;;;;5030648;28;20044;-75
2023/05/31 00:51:54;;;;;;;4.57;4.00;;;;;;;;;;5013709;28;20600;-75
2023/05/31 00:54:20;;;;;;;5.85;3.85;;;;;;;;;;5030732;28;20033;-76
2023/05/31 00:56:47;;;;;;;5.20;3.80;;;;;;;;;;5013294;28;20049;-75
2023/05/31 00:59:13;;;;;;;4.10;3.80;;;;;;;;;;5029922;28;20473;-74
2023/05/31 01:01:39;;;;;;;3.90;3.47;;;;;;;;;;5030809;28;20106;-75
2023/05/31 01:04:05;;;;;;;4.00;3.60;;;;;;;;;;5013287;28;20044;-76
2023/05/31 01:06:34;;;;;;;3.63;3.42;;;;;;;;;;5030566;28;20060;-75
2023/05/31 01:09:01;;;;;;;3.40;3.10;;;;;;;;;;4996733;28;20052;-74
2023/05/31 01:11:45;;;;;;;2.78;2.67;;;;;;;;;;5030496;28;20430;-75
2023/05/31 01:14:29;;;;;;;5.10;4.65;;;;;;;;;;5030634;28;20050;-74
2023/05/31 01:16:57;;;;;;;4.88;3.70;;;;;;;;;;5013411;28;20045;-75
2023/05/31 01:19:30;;;;;;;4.75;4.00;;;;;;;;;;5029129;28;20037;-76
2023/05/31 01:22:28;;;;;;;4.97;4.13;;;;;;;;;;5013094;28;20501;-75
2023/05/31 01:24:59;;;;;;;5.03;4.60;;;;;;;;;;4976530;28;20418;-74
2023/05/31 01:27:25;;;;;;;7.47;3.80;;;;;;;;;;5029203;28;20506;-75
2023/05/31 01:29:51;;;;;;;6.05;3.50;;;;;;;;;;5012934;28;20056;-75
2023/05/31 01:32:18;;;;;;;3.72;3.42;;;;;;;;;;5012764;28;20064;-76
2023/05/31 01:34:45;;;;;;;6.78;3.45;;;;;;;;;;5012844;28;20045;-76
2023/05/31 01:37:11;;;;;;;6.97;3.53;;;;;;;;;;5012968;28;20497;-74
2023/05/31 01:39:37;;;;;;;4.22;3.95;;;;;;;;;;5030929;28;20409;-75
2023/05/31 01:42:03;;;;;;;5.05;3.40;;;;;;;;;;5013542;28;20124;-77
2023/05/31 01:44:30;;;;;;;9.18;4.00;;;;;;;;;;5029891;28;20053;-75
2023/05/31 01:46:56;;;;;;;3.30;3.05;;;;;;;;;;5012662;28;20052;-75
2023/05/31 01:49:24;;;;;;;7.72;3.85;;;;;;;;;;5012738;28;20052;-75
2023/05/31 01:51:50;;;;;;;4.50;3.60;;;;;;;;;;5029884;28;20063;-75
2023/05/31 01:54:16;;;;;;;4.15;3.40;;;;;;;;;;5029881;28;20569;-75
2023/05/31 01:56:42;;;;;;;9.40;4.10;;;;;;;;;;5031095;28;20129;-74
2023/05/31 01:59:08;;;;;;;4.18;3.78;;;;;;;;;;4995056;28;20077;-74
2023/05/31 02:01:35;;;;;;;4.00;3.58;;;;;;;;;;4994232;28;20053;-76
2023/05/31 02:04:01;;;;;;;7.13;3.60;;;;;;;;;;5011564;28;20513;-75
2023/05/31 02:06:28;;;;;;;3.85;3.55;;;;;;;;;;5010766;28;20057;-74
2023/05/31 02:08:54;;;;;;;4.97;3.38;;;;;;;;;;5010830;28;20042;-73
2023/05/31 02:11:23;;;;;;;5.00;3.50;;;;;;;;;;4995419;28;20050;-74
2023/05/31 02:13:49;;;;;;;5.72;3.03;;;;;;;;;;4981179;28;20077;-74
2023/05/31 02:16:16;;;;;;;4.70;3.47;;;;;;;;;;5014945;28;20042;-76
2023/05/31 02:18:46;;;;;;;4.85;3.00;;;;;;;;;;4997254;28;20449;-73
2023/05/31 02:21:11;;;;;;;3.65;3.35;;;;;;;;;;4997132;28;20100;-75
2023/05/31 02:23:38;;;;;;;7.35;3.45;;;;;;;;;;5015124;28;20490;-76
2023/05/31 02:26:04;;;;;;;7.40;3.35;;;;;;;;;;4997844;28;20387;-74
2023/05/31 02:28:31;;;;;;;4.00;3.47;;;;;;;;;;5015002;28;20125;-74
2023/05/31 02:30:57;;;;;;;4.45;3.28;;;;;;;;;;5016043;28;20133;-75
2023/05/31 02:33:25;;;;;;;3.70;3.40;;;;;;;;;;5016862;28;20052;-75
2023/05/31 02:35:51;;;;;;;3.45;3.20;;;;;;;;;;5014304;28;20080;-75
2023/05/31 02:38:18;;;;;;;4.93;4.05;;;;;;;;;;4996180;28;20053;-74
2023/05/31 02:40:44;;;;;;;5.80;3.03;;;;;;;;;;4996333;28;20067;-76
2023/05/31 02:43:12;;;;;;;6.68;3.58;;;;;;;;;;5014218;28;20049;-75
2023/05/31 02:45:38;;;;;;;9.20;3.97;;;;;;;;;;5013652;28;20084;-75
2023/05/31 02:48:05;;;;;;;4.40;2.95;;;;;;;;;;4997224;28;20518;-74
2023/05/31 02:50:32;;;;;;;3.53;3.22;;;;;;;;;;4980751;28;20037;-75
2023/05/31 02:53:04;;;;;;;3.83;3.17;;;;;;;;;;5013190;28;20559;-74
2023/05/31 02:55:59;;;;;;;3.72;3.38;;;;;;;;;;5002069;28;20068;-74
2023/05/31 02:58:44;;;;;;;3.80;3.40;;;;;;;;;;5003833;28;20081;-74
2023/05/31 03:01:39;;;;;;;3.97;2.97;;;;;;;;;;5000367;28;20050;-74
2023/05/31 03:04:25;;;;;;;3.15;2.63;;;;;;;;;;4982243;28;20052;-74
2023/05/31 03:06:53;;;;;;;5.38;3.20;;;;;;;;;;4995792;28;20097;-75
2023/05/31 03:09:19;;;;;;;3.80;3.60;;;;;;;;;;5013076;28;20073;-74
2023/05/31 03:11:45;;;;;;;4.03;3.25;;;;;;;;;;4995618;28;20081;-75
2023/05/31 03:14:11;;;;;;;6.22;3.58;;;;;;;;;;5013076;28;20030;-73
2023/05/31 03:16:45;;;;;;;3.40;2.90;;;;;;;;;;4995650;28;20049;-74
2023/05/31 03:19:15;;;;;;;4.97;3.15;;;;;;;;;;4995458;28;20042;-75
2023/05/31 03:21:43;;;;;;;3.22;2.92;;;;;;;;;;4995346;28;20049;-73
2023/05/31 03:24:09;;;;;;;5.70;2.78;;;;;;;;;;4979083;28;20489;-74
2023/05/31 03:26:36;;;;;;;5.32;3.03;;;;;;;;;;4979383;28;20052;-74
2023/05/31 03:29:02;;;;;;;4.55;3.00;;;;;;;;;;5011714;28;20487;-75
2023/05/31 03:31:32;;;;;;;6.90;3.70;;;;;;;;;;5011367;28;20060;-75
2023/05/31 03:33:59;;;;;;;3.50;2.97;;;;;;;;;;5012741;28;20050;-75
2023/05/31 03:36:26;;;;;;;5.95;3.25;;;;;;;;;;4995023;28;20503;-75
2023/05/31 03:38:52;;;;;;;5.25;2.95;;;;;;;;;;4995230;28;20053;-74
2023/05/31 03:41:18;;;;;;;5.60;3.55;;;;;;;;;;5012633;28;20521;-73
2023/05/31 03:43:45;;;;;;;3.75;3.45;;;;;;;;;;4998594;28;20061;-75
2023/05/31 03:46:11;;;;;;;9.63;3.97;;;;;;;;;;5012515;28;20044;-74
2023/05/31 03:48:37;;;;;;;7.30;2.55;;;;;;;;;;5012263;28;20520;-75
2023/05/31 03:51:04;;;;;;;4.05;3.17;;;;;;;;;;5012554;28;20046;-74
2023/05/31 03:53:30;;;;;;;7.63;3.45;;;;;;;;;;4994806;28;20077;-73
2023/05/31 03:55:58;;;;;;;5.97;3.40;;;;;;;;;;4995120;28;20502;-75
2023/05/31 03:58:24;;;;;;;4.18;3.20;;;;;;;;;;5011004;28;20057;-73
2023/05/31 04:00:51;;;;;;;4.57;3.50;;;;;;;;;;5012204;28;20103;-74
2023/05/31 04:03:17;;;;;;;10.57;4.00;;;;;;;;;;5012479;28;20402;-74
2023/05/31 04:05:44;;;;;;;5.45;3.72;;;;;;;;;;5013136;28;20442;-74
2023/05/31 04:08:11;;;;;;;11.60;4.47;;;;;;;;;;5014055;28;20521;-74
2023/05/31 04:10:37;;;;;;;4.25;3.88;;;;;;;;;;5013229;28;20477;-74
2023/05/31 04:13:03;;;;;;;5.63;3.55;;;;;;;;;;4995208;28;20417;-74
2023/05/31 04:15:29;;;;;;;7.00;4.05;;;;;;;;;;4994573;28;20445;-74
2023/05/31 04:17:59;;;;;;;5.70;3.58;;;;;;;;;;4994618;28;20418;-75
2023/05/31 04:20:27;;;;;;;3.78;3.42;;;;;;;;;;4994470;28;20474;-75
2023/05/31 04:22:53;;;;;;;4.30;3.90;;;;;;;;;;5012213;28;20410;-75
2023/05/31 04:25:19;;;;;;;5.15;3.83;;;;;;;;;;4978070;28;20501;-74
2023/05/31 04:27:47;;;;;;;4.13;3.60;;;;;;;;;;4994442;28;20034;-74
2023/05/31 04:30:14;;;;;;;8.48;2.38;;;;;;;;;;4994389;28;20081;-74
2023/05/31 04:32:44;;;;;;;4.65;3.50;;;;;;;;;;5010687;28;20053;-74
2023/05/31 04:35:11;;;;;;;4.05;3.47;;;;;;;;;;5009852;28;20046;-75
2023/05/31 04:37:41;;;;;;;4.15;3.83;;;;;;;;;;4994851;28;20108;-74
2023/05/31 04:40:11;;;;;;;11.05;3.50;;;;;;;;;;5011678;28;20410;-76
2023/05/31 04:42:40;;;;;;;5.22;3.80;;;;;;;;;;4994030;28;20049;-74
2023/05/31 04:45:17;;;;;;;6.65;3.90;;;;;;;;;;4979711;28;20128;-75
2023/05/31 04:47:49;;;;;;;5.80;3.53;;;;;;;;;;5010693;28;20410;-74
2023/05/31 04:50:18;;;;;;;5.32;4.13;;;;;;;;;;4994202;28;20514;-75
2023/05/31 04:52:44;;;;;;;9.00;3.88;;;;;;;;;;5011399;28;20057;-75
2023/05/31 04:55:14;;;;;;;3.28;3.08;;;;;;;;;;4993968;28;20041;-75
2023/05/31 04:57:40;;;;;;;4.90;3.38;;;;;;;;;;5001238;28;20080;-75
2023/05/31 05:00:15;;;;;;;3.55;3.25;;;;;;;;;;5029900;28;20072;-76
2023/05/31 05:03:04;;;;;;;2.40;2.20;;;;;;;;;;5030496;28;20045;-75
2023/05/31 05:05:31;;;;;;;4.22;3.70;;;;;;;;;;5012712;28;20045;-75
2023/05/31 05:08:00;;;;;;;2.85;2.60;;;;;;;;;;5013193;28;20419;-75
2023/05/31 05:10:26;;;;;;;3.10;2.80;;;;;;;;;;5029389;28;20456;-75
2023/05/31 05:12:53;;;;;;;3.67;2.90;;;;;;;;;;5013115;28;20128;-75
2023/05/31 05:15:20;;;;;;;8.38;2.70;;;;;;;;;;5013087;28;20140;-75
2023/05/31 05:17:46;;;;;;;2.22;2.00;;;;;;;;;;5013209;28;20111;-74
2023/05/31 05:20:14;;;;;;;4.80;2.92;;;;;;;;;;5029271;28;20132;-75
2023/05/31 05:22:42;;;;;;;6.63;3.08;;;;;;;;;;5029140;28;20041;-74
2023/05/31 05:25:08;;;;;;;2.70;2.60;;;;;;;;;;5030407;28;20140;-73
2023/05/31 05:27:34;;;;;;;4.72;3.05;;;;;;;;;;5031885;28;20641;-74
2023/05/31 05:30:01;;;;;;;2.90;2.63;;;;;;;;;;5031290;28;20049;-75
2023/05/31 05:32:31;;;;;;;1.90;1.80;;;;;;;;;;5029088;28;20053;-75
2023/05/31 05:34:58;;;;;;;1.98;1.88;;;;;;;;;;5028966;28;20037;-75
2023/05/31 05:37:24;;;;;;;8.63;3.00;;;;;;;;;;5012665;28;20064;-76
2023/05/31 05:39:50;;;;;;;1.70;1.60;;;;;;;;;;5029922;28;20057;-75
2023/05/31 05:42:17;;;;;;;1.98;1.88;;;;;;;;;;5030200;28;20029;-75
2023/05/31 05:44:43;;;;;;;5.78;2.80;;;;;;;;;;5029916;28;20068;-75
2023/05/31 05:47:10;;;;;;;3.00;2.47;;;;;;;;;;5012305;28;20060;-75
2023/05/31 05:49:37;;;;;;;2.60;2.50;;;;;;;;;;5028752;28;20041;-75
2023/05/31 05:52:03;;;;;;;2.83;2.63;;;;;;;;;;4996091;28;20084;-75
2023/05/31 05:54:30;;;;;;;3.05;2.83;;;;;;;;;;5028630;28;20080;-75
2023/05/31 05:56:57;;;;;;;5.78;2.90;;;;;;;;;;5012644;28;20524;-76
2023/05/31 05:59:27;;;;;;;2.40;2.28;;;;;;;;;;5012395;28;20539;-75
2023/05/31 06:01:58;;;;;;;2.70;2.58;;;;;;;;;;5012739;28;20049;-75
2023/05/31 06:04:25;;;;;;;3.22;3.03;;;;;;;;;;5028896;28;20524;-75
2023/05/31 06:06:51;;;;;;;6.45;4.20;;;;;;;;;;5012446;28;20033;-75
2023/05/31 06:09:17;;;;;;;9.23;3.15;;;;;;;;;;5012691;28;20048;-75
2023/05/31 06:11:43;;;;;;;8.25;3.97;;;;;;;;;;5012205;28;20046;-74
2023/05/31 06:14:10;;;;;;;4.97;4.15;;;;;;;;;;5012477;28;20541;-75
2023/05/31 06:16:40;;;;;;;4.18;3.70;;;;;;;;;;4996524;28;20049;-75
2023/05/31 06:19:07;;;;;;;4.38;4.03;;;;;;;;;;4996633;28;20449;-75
2023/05/31 06:21:34;;;;;;;4.72;3.90;;;;;;;;;;5013916;28;20045;-74
2023/05/31 06:24:02;;;;;;;5.45;5.05;;;;;;;;;;5017933;28;20123;-73
2023/05/31 06:26:28;;;;;;;6.07;4.20;;;;;;;;;;5021302;28;20541;-74
2023/05/31 06:28:54;;;;;;;5.15;4.35;;;;;;;;;;5039909;28;20052;-75
2023/05/31 06:31:40;;;;;;;5.57;4.80;;;;;;;;;;5030054;28;20056;-76
2023/05/31 06:34:06;;;;;;;10.10;4.97;;;;;;;;;;5030561;28;20228;-76
2023/05/31 06:36:32;;;;;;;6.18;5.65;;;;;;;;;;5029517;28;20050;-78
2023/05/31 06:38:58;;;;;;;6.28;5.85;;;;;;;;;;5012447;28;20053;-77
2023/05/31 06:41:26;;;;;;;10.38;5.95;;;;;;;;;;5012163;28;20529;-78
2023/05/31 06:43:52;;;;;;;9.70;6.97;;;;;;;;;;5028445;28;20049;-77
2023/05/31 06:46:37;;;;;;;9.18;8.30;;;;;;;;;;5029555;28;20056;-78
2023/05/31 06:49:21;;;;;;;7.50;6.70;;;;;;;;;;5029631;28;20103;-76
2023/05/31 06:51:50;;;;;;;7.18;6.50;;;;;;;;;;5012075;28;20481;-77
2023/05/31 06:54:28;;;;;;;10.05;8.27;;;;;;;;;;5029597;28;20535;-76
2023/05/31 06:56:56;;;;;;;7.03;6.25;;;;;;;;;;5011556;28;20071;-77
2023/05/31 06:59:22;;;;;;;5.18;4.45;;;;;;;;;;5015512;28;20041;-75
2023/05/31 07:01:52;;;;;;;5.05;4.38;;;;;;;;;;5015058;28;20131;-76
2023/05/31 07:04:19;;;;;;;6.30;5.80;;;;;;;;;;5033065;28;20042;-76
2023/05/31 07:06:45;;;;;;;6.80;6.20;;;;;;;;;;4998856;28;20390;-77
2023/05/31 07:09:11;;;;;;;7.43;4.20;;;;;;;;;;5031835;28;20101;-77
2023/05/31 07:11:46;;;;;;;4.85;4.13;;;;;;;;;;5019350;28;20127;-76
2023/05/31 07:14:13;;;;;;;6.57;5.97;;;;;;;;;;5021365;28;20041;-77
2023/05/31 07:16:39;;;;;;;6.70;6.20;;;;;;;;;;4999016;28;20044;-78
2023/05/31 07:19:05;;;;;;;6.30;5.80;;;;;;;;;;5015847;28;20497;-77
2023/05/31 07:21:32;;;;;;;5.72;5.22;;;;;;;;;;5014911;28;20535;-77
2023/05/31 07:23:58;;;;;;;5.03;4.53;;;;;;;;;;5015154;28;20394;-76
2023/05/31 07:26:26;;;;;;;5.07;4.68;;;;;;;;;;5032652;28;20040;-76
2023/05/31 07:28:52;;;;;;;4.65;4.18;;;;;;;;;;5032562;28;20072;-76
2023/05/31 07:31:18;;;;;;;4.57;4.18;;;;;;;;;;5032299;28;20045;-79
2023/05/31 07:33:45;;;;;;;4.30;3.90;;;;;;;;;;4998635;28;20052;-78
2023/05/31 07:36:11;;;;;;;6.57;3.50;;;;;;;;;;5032989;28;20087;-78
2023/05/31 07:38:38;;;;;;;7.35;3.78;;;;;;;;;;4998490;28;20056;-77
2023/05/31 07:41:04;;;;;;;4.57;4.18;;;;;;;;;;5032374;28;20131;-77
2023/05/31 07:43:31;;;;;;;6.38;4.18;;;;;;;;;;5032208;28;20113;-77
2023/05/31 07:45:56;;;;;;;3.55;3.30;;;;;;;;;;5032072;28;20145;-75
2023/05/31 07:48:23;;;;;;;3.50;3.17;;;;;;;;;;5032176;28;20041;-75
2023/05/31 07:50:49;;;;;;;3.90;3.63;;;;;;;;;;5013951;28;20041;-75
2023/05/31 07:53:16;;;;;;;3.58;2.92;;;;;;;;;;5032172;28;20049;-75
2023/05/31 07:55:43;;;;;;;1.70;1.63;;;;;;;;;;5031752;28;20041;-74
2023/05/31 07:58:12;;;;;;;2.35;2.20;;;;;;;;;;5031775;28;20476;-75
2023/05/31 08:00:38;;;;;;;2.45;2.30;;;;;;;;;;5031711;28;20072;-76
2023/05/31 08:03:05;;;;;;;2.10;2.00;;;;;;;;;;5031951;28;20033;-76
2023/05/31 08:05:31;;;;;;;2.22;2.13;;;;;;;;;;4997768;28;20140;-75
2023/05/31 08:07:57;;;;;;;2.67;2.10;;;;;;;;;;5031624;28;20456;-75
2023/05/31 08:10:23;;;;;;;3.40;2.65;;;;;;;;;;5031649;28;20052;-75
2023/05/31 08:12:50;;;;;;;2.50;2.30;;;;;;;;;;5031356;28;20513;-75
2023/05/31 08:15:16;;;;;;;4.70;2.58;;;;;;;;;;5031654;28;20052;-75
2023/05/31 08:17:43;;;;;;;2.90;2.28;;;;;;;;;;5031760;28;20528;-75
2023/05/31 08:20:15;;;;;;;2.70;2.30;;;;;;;;;;5031644;28;20043;-75
2023/05/31 08:22:42;;;;;;;2.30;2.20;;;;;;;;;;5031781;28;20034;-75
2023/05/31 08:25:12;;;;;;;2.45;2.30;;;;;;;;;;5031603;28;20072;-75
2023/05/31 08:27:40;;;;;;;2.70;2.50;;;;;;;;;;5031489;28;20060;-75
2023/05/31 08:30:10;;;;;;;6.97;3.72;;;;;;;;;;5031545;28;20057;-75
2023/05/31 08:32:36;;;;;;;2.70;2.50;;;;;;;;;;5031589;28;20421;-75
2023/05/31 08:35:03;;;;;;;2.30;2.20;;;;;;;;;;5031798;28;20049;-75
2023/05/31 08:37:30;;;;;;;2.72;2.30;;;;;;;;;;5031710;28;20068;-76
2023/05/31 08:39:56;;;;;;;4.05;2.50;;;;;;;;;;5031555;28;20041;-75
2023/05/31 08:42:24;;;;;;;3.03;2.72;;;;;;;;;;5031654;28;20069;-75
2023/05/31 08:44:51;;;;;;;4.75;3.00;;;;;;;;;;5031170;28;20422;-76
2023/05/31 08:47:17;;;;;;;3.22;2.60;;;;;;;;;;5013595;28;20041;-75
2023/05/31 08:49:44;;;;;;;3.55;2.75;;;;;;;;;;5031073;28;20128;-74
2023/05/31 08:52:10;;;;;;;2.80;2.60;;;;;;;;;;5030907;28;20140;-75
2023/05/31 08:54:37;;;;;;;3.30;3.03;;;;;;;;;;5031437;28;20084;-75
2023/05/31 08:57:05;;;;;;;3.55;2.83;;;;;;;;;;5036810;28;20108;-75
2023/05/31 08:59:31;;;;;;;5.28;3.15;;;;;;;;;;5032353;28;20054;-75
2023/05/31 09:01:57;;;;;;;6.85;2.75;;;;;;;;;;5030775;28;20048;-75
2023/05/31 09:04:25;;;;;;;2.45;2.25;;;;;;;;;;5013499;28;20052;-75
2023/05/31 09:06:51;;;;;;;2.33;2.10;;;;;;;;;;5030684;28;20132;-74
2023/05/31 09:09:18;;;;;;;2.60;2.40;;;;;;;;;;5030872;28;20525;-75
2023/05/31 09:11:45;;;;;;;2.85;2.65;;;;;;;;;;5030614;28;20061;-75
2023/05/31 09:14:11;;;;;;;2.63;2.22;;;;;;;;;;5031045;28;20501;-74
2023/05/31 09:16:37;;;;;;;2.55;2.40;;;;;;;;;;5030879;28;20045;-75
2023/05/31 09:19:05;;;;;;;2.25;2.15;;;;;;;;;;4980764;28;20052;-74
2023/05/31 09:21:41;;;;;;;3.90;2.33;;;;;;;;;;5030035;28;20508;-75
2023/05/31 09:24:06;;;;;;;2.58;2.38;;;;;;;;;;5030785;28;20489;-75
2023/05/31 09:26:33;;;;;;;2.85;2.53;;;;;;;;;;5030435;28;20084;-74
2023/05/31 09:28:59;;;;;;;3.35;2.13;;;;;;;;;;5030355;28;20140;-75
2023/05/31 09:31:27;;;;;;;3.22;2.00;;;;;;;;;;5030306;28;20033;-75
2023/05/31 09:33:56;;;;;;;2.17;2.08;;;;;;;;;;5030126;28;20053;-75
2023/05/31 09:36:28;;;;;;;1.98;1.88;;;;;;;;;;5013066;28;20498;-75
2023/05/31 09:39:10;;;;;;;1.77;1.70;;;;;;;;;;5030197;28;20041;-75
2023/05/31 09:41:36;;;;;;;2.20;1.92;;;;;;;;;;5012782;28;20041;-75
2023/05/31 09:44:02;;;;;;;2.70;2.50;;;;;;;;;;5030395;28;20045;-75
2023/05/31 09:46:29;;;;;;;2.15;2.05;;;;;;;;;;4996666;28;20494;-75
2023/05/31 09:49:06;;;;;;;2.67;1.80;;;;;;;;;;5030749;28;20059;-75
2023/05/31 09:51:32;;;;;;;3.67;2.10;;;;;;;;;;5035540;28;20051;-75
2023/05/31 09:54:07;;;;;;;1.20;1.20;;;;;;;;;;5038940;28;20049;-75
2023/05/31 09:56:35;;;;;;;3.47;2.13;;;;;;;;;;5020651;28;20044;-75
2023/05/31 09:59:02;;;;;;;3.47;3.17;;;;;;;;;;4994012;28;20060;-75
2023/05/31 10:01:28;;;;;;;2.17;1.98;;;;;;;;;;5010033;28;20046;-75
2023/05/31 10:03:55;;;;;;;3.35;3.08;;;;;;;;;;5010208;28;20046;-75
2023/05/31 10:06:21;;;;;;;2.97;2.78;;;;;;;;;;5010242;28;20128;-75
2023/05/31 10:08:47;;;;;;;3.75;2.42;;;;;;;;;;5010203;28;20034;-76
2023/05/31 10:11:14;;;;;;;2.85;2.22;;;;;;;;;;5010115;28;20050;-78
2023/05/31 10:13:41;;;;;;;3.70;3.20;;;;;;;;;;5010185;28;20045;-77
2023/05/31 10:16:07;;;;;;;3.70;2.00;;;;;;;;;;5009989;28;20037;-77
2023/05/31 10:18:36;;;;;;;6.28;3.28;;;;;;;;;;5010262;28;20395;-76
2023/05/31 10:21:06;;;;;;;5.22;3.03;;;;;;;;;;4992557;28;20154;-75
2023/05/31 10:23:32;;;;;;;3.83;3.53;;;;;;;;;;4992655;28;20037;-76
2023/05/31 10:26:08;;;;;;;8.25;4.03;;;;;;;;;;4992524;28;20065;-75
2023/05/31 10:28:39;;;;;;;4.80;3.70;;;;;;;;;;4992429;28;20045;-76
2023/05/31 10:31:06;;;;;;;36.03;4.53;;;;;;;;;;4992354;28;20506;-76
2023/05/31 10:33:32;;;;;;;3.47;3.15;;;;;;;;;;5012503;28;20156;-78
2023/05/31 10:35:58;;;;;;;2.80;2.60;;;;;;;;;;5013639;28;20066;-77
2023/05/31 10:38:24;;;;;;;5.38;3.50;;;;;;;;;;4996674;28;20038;-77
2023/05/31 10:40:56;;;;;;;2.50;2.38;;;;;;;;;;5003185;28;20053;-78
2023/05/31 10:43:27;;;;;;;4.05;3.17;;;;;;;;;;5002269;28;20577;-79
2023/05/31 10:46:00;;;;;;;4.00;3.70;;;;;;;;;;5014428;28;20100;-79
2023/05/31 10:48:32;;;;;;;4.40;3.88;;;;;;;;;;5014463;28;20061;-78
2023/05/31 10:50:59;;;;;;;2.58;2.42;;;;;;;;;;4997213;28;20052;-78
2023/05/31 10:53:35;;;;;;;5.07;4.20;;;;;;;;;;4997378;28;20069;-79
2023/05/31 10:56:02;;;;;;;3.88;3.58;;;;;;;;;;5014562;28;20073;-79
2023/05/31 10:58:29;;;;;;;3.63;3.30;;;;;;;;;;5028413;28;20084;-78
2023/05/31 11:00:56;;;;;;;3.47;3.22;;;;;;;;;;5033066;28;20148;-81
2023/05/31 11:03:25;;;;;;;3.90;3.60;;;;;;;;;;5016262;28;20069;-80
2023/05/31 11:06:00;;;;;;;4.35;3.30;;;;;;;;;;5033152;28;20051;-80
2023/05/31 11:08:27;;;;;;;3.45;3.25;;;;;;;;;;5033531;28;20417;-80
2023/05/31 11:11:13;;;;;;;4.05;3.28;;;;;;;;;;5015470;28;20056;-79
2023/05/31 11:13:58;;;;;;;2.78;2.58;;;;;;;;;;5033072;28;20060;-78
2023/05/31 11:16:25;;;;;;;2.58;2.42;;;;;;;;;;5032981;28;20045;-80
2023/05/31 11:19:04;;;;;;;3.63;3.42;;;;;;;;;;5033044;28;20049;-79
2023/05/31 11:21:50;;;;;;;3.63;3.33;;;;;;;;;;5032856;28;20073;-79
2023/05/31 11:24:52;;;;;;;3.05;2.25;;;;;;;;;;4999211;28;20042;-80
2023/05/31 11:27:22;;;;;;;3.72;3.45;;;;;;;;;;4933181;29;20058;-80
2023/05/31 11:29:51;;;;;;;2.20;2.10;;;;;;;;;;4985537;28;20041;-80
2023/05/31 11:32:21;;;;;;;4.15;3.03;;;;;;;;;;5033012;28;20061;-81
2023/05/31 11:34:50;;;;;;;2.75;2.55;;;;;;;;;;5033650;28;20053;-81
2023/05/31 11:37:17;;;;;;;6.22;3.65;;;;;;;;;;5033127;28;20498;-80
2023/05/31 11:39:46;;;;;;;5.07;3.28;;;;;;;;;;5014830;28;20041;-78
2023/05/31 11:42:13;;;;;;;4.10;3.75;;;;;;;;;;5014892;28;20075;-80
2023/05/31 11:44:42;;;;;;;5.68;3.42;;;;;;;;;;5014541;28;20040;-79
2023/05/31 11:47:29;;;;;;;5.50;3.42;;;;;;;;;;5032177;28;20046;-79
2023/05/31 11:49:56;;;;;;;3.15;2.95;;;;;;;;;;5032332;28;20099;-78
2023/05/31 11:52:23;;;;;;;3.92;3.63;;;;;;;;;;5014404;28;20433;-79
2023/05/31 11:54:48;;;;;;;3.10;2.90;;;;;;;;;;5014566;28;20044;-79
2023/05/31 11:57:16;;;;;;;4.40;3.55;;;;;;;;;;5014560;28;20099;-78
2023/05/31 11:59:42;;;;;;;3.78;3.50;;;;;;;;;;5032362;28;20502;-79
2023/05/31 12:02:09;;;;;;;4.40;3.85;;;;;;;;;;5032115;28;20041;-78
2023/05/31 12:04:36;;;;;;;3.83;3.53;;;;;;;;;;5032186;28;20041;-78
2023/05/31 12:07:04;;;;;;;3.63;3.33;;;;;;;;;;5014303;28;20060;-78
2023/05/31 12:09:29;;;;;;;2.95;2.80;;;;;;;;;;5014282;28;20071;-78
2023/05/31 12:11:56;;;;;;;3.85;2.80;;;;;;;;;;5014150;28;20049;-79
2023/05/31 12:14:22;;;;;;;6.40;3.03;;;;;;;;;;5032115;28;20057;-79
2023/05/31 12:16:51;;;;;;;5.32;4.82;;;;;;;;;;5014423;28;20339;-78
2023/05/31 12:19:21;;;;;;;5.65;4.25;;;;;;;;;;5014112;28;20056;-79
2023/05/31 12:21:47;;;;;;;2.67;2.47;;;;;;;;;;5032017;28;20458;-79
2023/05/31 12:24:13;;;;;;;4.50;4.10;;;;;;;;;;5035989;28;20037;-78
2023/05/31 12:26:39;;;;;;;4.63;4.22;;;;;;;;;;5045257;28;20068;-80
2023/05/31 12:29:05;;;;;;;3.85;3.55;;;;;;;;;;5032154;28;20084;-79
2023/05/31 12:31:33;;;;;;;4.57;3.65;;;;;;;;;;5031589;28;20506;-79
2023/05/31 12:34:00;;;;;;;4.07;3.67;;;;;;;;;;5013928;28;20041;-78
2023/05/31 12:36:26;;;;;;;4.25;3.80;;;;;;;;;;5031370;28;20115;-79
2023/05/31 12:38:55;;;;;;;3.67;2.92;;;;;;;;;;5031509;28;20127;-79
2023/05/31 12:41:22;;;;;;;2.97;2.78;;;;;;;;;;5031384;28;20382;-78
2023/05/31 12:43:48;;;;;;;5.03;3.75;;;;;;;;;;5031600;28;20099;-78
2023/05/31 12:46:16;;;;;;;2.25;2.15;;;;;;;;;;5031030;28;20046;-78
2023/05/31 12:48:45;;;;;;;3.75;3.45;;;;;;;;;;5013910;28;20331;-78
2023/05/31 12:51:12;;;;;;;5.70;3.47;;;;;;;;;;5031115;28;20424;-78
2023/05/31 12:53:40;;;;;;;5.72;3.45;;;;;;;;;;5031074;28;20058;-78
2023/05/31 12:56:06;;;;;;;6.50;3.35;;;;;;;;;;5012545;28;20041;-78
2023/05/31 12:58:33;;;;;;;4.30;3.70;;;;;;;;;;4999034;28;20065;-77
2023/05/31 13:01:00;;;;;;;4.38;3.45;;;;;;;;;;5011056;28;20038;-77
2023/05/31 13:03:25;;;;;;;3.35;3.08;;;;;;;;;;5011306;28;20391;-75
2023/05/31 13:05:52;;;;;;;3.97;3.65;;;;;;;;;;5011357;28;20049;-75
2023/05/31 13:08:18;;;;;;;4.88;3.38;;;;;;;;;;5011995;28;20081;-76
2023/05/31 13:10:44;;;;;;;4.05;3.65;;;;;;;;;;5011444;28;20108;-76
2023/05/31 13:13:10;;;;;;;3.78;3.33;;;;;;;;;;5011640;28;20140;-76
2023/05/31 13:15:37;;;;;;;3.50;3.20;;;;;;;;;;5011325;28;20133;-76
2023/05/31 13:18:03;;;;;;;4.05;3.60;;;;;;;;;;5010641;28;20121;-76
2023/05/31 13:20:29;;;;;;;3.08;2.80;;;;;;;;;;5011012;28;20069;-76
2023/05/31 13:22:55;;;;;;;3.25;2.95;;;;;;;;;;4993199;28;20076;-76
2023/05/31 13:25:22;;;;;;;5.97;3.30;;;;;;;;;;5011057;28;20077;-75
2023/05/31 13:27:48;;;;;;;2.42;2.30;;;;;;;;;;5009542;28;20518;-75
2023/05/31 13:30:14;;;;;;;3.50;3.20;;;;;;;;;;4993226;28;20064;-75
2023/05/31 13:32:40;;;;;;;2.30;2.20;;;;;;;;;;5010776;28;20497;-75
2023/05/31 13:35:08;;;;;;;5.75;3.10;;;;;;;;;;5010881;28;20038;-76
2023/05/31 13:37:34;;;;;;;3.90;3.45;;;;;;;;;;4977234;28;20156;-77
2023/05/31 13:40:00;;;;;;;7.15;3.33;;;;;;;;;;4995720;28;20066;-76
2023/05/31 13:42:26;;;;;;;3.92;2.80;;;;;;;;;;4999299;28;20498;-76
2023/05/31 13:44:52;;;;;;;2.22;2.13;;;;;;;;;;4998546;28;20532;-76
2023/05/31 13:47:18;;;;;;;3.40;2.72;;;;;;;;;;5016687;28;20100;-76
2023/05/31 13:49:44;;;;;;;4.03;3.50;;;;;;;;;;5023496;28;20038;-76
2023/05/31 13:52:13;;;;;;;5.65;3.25;;;;;;;;;;5023953;28;20057;-75
2023/05/31 13:54:38;;;;;;;7.75;3.33;;;;;;;;;;5022484;28;20048;-75
2023/05/31 13:57:04;;;;;;;2.40;2.30;;;;;;;;;;5014205;28;20041;-76
2023/05/31 13:59:31;;;;;;;2.67;2.47;;;;;;;;;;5013056;28;20058;-76
2023/05/31 14:01:57;;;;;;;2.72;1.98;;;;;;;;;;5012472;28;20409;-76
2023/05/31 14:04:23;;;;;;;2.75;2.55;;;;;;;;;;5030196;28;20049;-76
2023/05/31 14:06:50;;;;;;;2.35;2.22;;;;;;;;;;5013826;28;20095;-75
2023/05/31 14:09:17;;;;;;;5.68;3.17;;;;;;;;;;5034891;28;20224;-77
2023/05/31 14:11:43;;;;;;;4.03;3.03;;;;;;;;;;5035925;28;20053;-77
2023/05/31 14:14:09;;;;;;;3.05;2.80;;;;;;;;;;5033980;28;20156;-76
2023/05/31 14:16:35;;;;;;;7.15;3.13;;;;;;;;;;5033810;28;20195;-76
2023/05/31 14:19:01;;;;;;;3.13;2.90;;;;;;;;;;5033853;28;20055;-76
2023/05/31 14:21:28;;;;;;;3.45;3.17;;;;;;;;;;5033823;28;20053;-76
2023/05/31 14:23:53;;;;;;;3.42;3.00;;;;;;;;;;5033910;28;20073;-76
2023/05/31 14:26:20;;;;;;;2.75;2.50;;;;;;;;;;5033688;28;20085;-76
2023/05/31 14:28:46;;;;;;;6.72;2.97;;;;;;;;;;5033696;28;20048;-77
2023/05/31 14:31:11;;;;;;;2.55;2.30;;;;;;;;;;5033337;28;20128;-76
2023/05/31 14:33:40;;;;;;;3.35;2.75;;;;;;;;;;5016076;28;20417;-77
2023/05/31 14:36:07;;;;;;;4.07;2.97;;;;;;;;;;5033570;28;20045;-76
2023/05/31 14:38:33;;;;;;;4.60;3.20;;;;;;;;;;5033358;28;20045;-77
2023/05/31 14:40:59;;;;;;;7.32;3.03;;;;;;;;;;5015782;28;20049;-77
2023/05/31 14:43:25;;;;;;;4.28;3.17;;;;;;;;;;5033593;28;20529;-77
2023/05/31 14:45:51;;;;;;;5.72;2.92;;;;;;;;;;5033670;28;20046;-76
2023/05/31 14:48:17;;;;;;;4.18;2.70;;;;;;;;;;5033335;28;20156;-76